createdAt,value
2018-08-11T00:00:46.839Z,1002.89
2018-08-11T00:01:46.389Z,1002.93
2018-08-11T00:02:44.260Z,1002.84
2018-08-11T00:03:49.112Z,1002.84
2018-08-11T00:04:47.636Z,1002.95
2018-08-11T00:05:45.361Z,1002.92
2018-08-11T00:07:00.280Z,1002.85
2018-08-11T00:07:54.622Z,1002.84
2018-08-11T00:09:02.701Z,1002.9
2018-08-11T00:10:03.450Z,1002.9
2018-08-11T00:11:04.565Z,1002.87
2018-08-11T00:12:06.629Z,1002.84
2018-08-11T00:13:13.818Z,1002.87
2018-08-11T00:14:22.356Z,1002.79
2018-08-11T00:15:23.919Z,1002.87
2018-08-11T00:16:22.920Z,1002.82
2018-08-11T00:17:25.282Z,1002.85
2018-08-11T00:18:37.072Z,1003.01
2018-08-11T00:19:33.054Z,1002.88
2018-08-11T00:20:33.126Z,1002.9
2018-08-11T00:21:30.804Z,1002.96
2018-08-11T00:22:28.945Z,1002.85
2018-08-11T00:23:27.220Z,1002.88
2018-08-11T00:24:27.265Z,1002.87
2018-08-11T00:25:29.732Z,1002.82
2018-08-11T00:26:36.681Z,1002.88
2018-08-11T00:27:37.327Z,1002.88
2018-08-11T00:28:35.518Z,1002.9
2018-08-11T00:29:52.798Z,1002.99
2018-08-11T00:30:47.187Z,1003.01
2018-08-11T00:31:49.237Z,1003.02
2018-08-11T00:32:53.510Z,1002.96
2018-08-11T00:33:53.307Z,1002.93
2018-08-11T00:34:51.776Z,1003.07
2018-08-11T00:35:53.573Z,1003.01
2018-08-11T00:36:52.768Z,1002.98
2018-08-11T00:37:54.279Z,1003.04
2018-08-11T00:38:56.000Z,1003.06
2018-08-11T00:39:56.853Z,1003.06
2018-08-11T00:40:58.004Z,1003.06
2018-08-11T00:41:55.561Z,1003.03
2018-08-11T00:42:50.677Z,1003.02
2018-08-11T00:44:04.097Z,1003.09
2018-08-11T00:45:10.730Z,1003.12
2018-08-11T00:46:11.288Z,1003.09
2018-08-11T00:47:12.044Z,1003.17
2018-08-11T00:48:20.364Z,1003.18
2018-08-11T00:49:20.350Z,1003.12
2018-08-11T00:50:21.023Z,1003.17
2018-08-11T00:51:24.126Z,1003.24
2018-08-11T00:52:22.037Z,1003.33
2018-08-11T00:53:20.554Z,1003.32
2018-08-11T00:54:37.418Z,1003.37
2018-08-11T00:55:33.747Z,1003.35
2018-08-11T00:56:35.180Z,1003.45
2018-08-11T00:57:32.871Z,1003.33
2018-08-11T00:58:32.238Z,1003.45
2018-08-11T00:59:30.316Z,1003.47
2018-08-11T01:00:32.218Z,1003.54
2018-08-11T01:01:28.394Z,1003.42
2018-08-11T01:02:43.085Z,1003.48
2018-08-11T01:03:42.297Z,1003.53
2018-08-11T01:04:40.034Z,1003.53
2018-08-11T01:05:37.622Z,1003.56
2018-08-11T01:06:38.764Z,1003.47
2018-08-11T01:07:33.435Z,1003.62
2018-08-11T01:08:34.759Z,1003.72
2018-08-11T01:09:29.199Z,1003.87
2018-08-11T01:10:41.225Z,1003.73
2018-08-11T01:11:45.833Z,1003.81
2018-08-11T01:12:49.623Z,1003.72
2018-08-11T01:13:52.090Z,1003.81
2018-08-11T01:14:53.199Z,1003.79
2018-08-11T01:15:53.549Z,1003.76
2018-08-11T01:16:52.437Z,1003.84
2018-08-11T01:17:56.312Z,1003.85
2018-08-11T01:18:54.401Z,1003.85
2018-08-11T01:19:54.246Z,1003.91
2018-08-11T01:20:58.907Z,1003.95
2018-08-11T01:21:56.522Z,1004
2018-08-11T01:22:55.267Z,1004.06
2018-08-11T01:23:51.357Z,1004.12
2018-08-11T01:25:08.839Z,1004.16
2018-08-11T01:26:04.272Z,1004.04
2018-08-11T01:27:03.250Z,1004.16
2018-08-11T01:28:16.785Z,1004.01
2018-08-11T01:29:21.330Z,1003.94
2018-08-11T01:30:19.144Z,1003.92
2018-08-11T01:31:35.094Z,1003.91
2018-08-11T01:32:30.037Z,1003.91
2018-08-11T01:33:30.633Z,1003.86
2018-08-11T01:34:34.553Z,1003.98
2018-08-11T01:35:32.496Z,1004.03
2018-08-11T01:36:33.241Z,1004.02
2018-08-11T01:37:48.369Z,1003.94
2018-08-11T01:38:49.902Z,1003.94
2018-08-11T01:39:48.933Z,1004.01
2018-08-11T01:40:56.304Z,1003.98
2018-08-11T01:41:54.267Z,1003.93
2018-08-11T01:42:53.673Z,1003.87
2018-08-11T01:43:53.466Z,1003.95
2018-08-11T01:44:59.968Z,1003.87
2018-08-11T01:46:02.095Z,1003.84
2018-08-11T01:47:04.929Z,1003.8
2018-08-11T01:48:02.568Z,1003.76
2018-08-11T01:49:04.156Z,1003.84
2018-08-11T01:50:19.699Z,1003.87
2018-08-11T01:51:17.636Z,1003.83
2018-08-11T01:52:15.967Z,1003.98
2018-08-11T01:53:17.264Z,1004.01
2018-08-11T01:54:17.928Z,1003.96
2018-08-11T01:55:23.395Z,1003.89
2018-08-11T01:56:24.968Z,1003.86
2018-08-11T01:57:22.738Z,1003.87
2018-08-11T01:58:20.851Z,1003.81
2018-08-11T01:59:20.585Z,1003.86
2018-08-11T02:00:20.570Z,1003.81
2018-08-11T02:01:19.796Z,1003.83
2018-08-11T02:02:19.637Z,1003.62
2018-08-11T02:03:15.900Z,1003.68
2018-08-11T02:04:16.451Z,1003.65
2018-08-11T02:05:12.731Z,1003.71
2018-08-11T02:06:24.895Z,1003.68
2018-08-11T02:07:35.531Z,1003.68
2018-08-11T02:08:34.052Z,1003.53
2018-08-11T02:09:33.176Z,1003.5
2018-08-11T02:10:31.137Z,1003.43
2018-08-11T02:11:29.999Z,1003.38
2018-08-11T02:12:28.698Z,1003.52
2018-08-11T02:13:28.894Z,1003.54
2018-08-11T02:14:32.609Z,1003.5
2018-08-11T02:15:35.260Z,1003.47
2018-08-11T02:16:31.156Z,1003.49
2018-08-11T02:17:31.439Z,1003.47
2018-08-11T02:18:29.743Z,1003.41
2018-08-11T02:19:27.726Z,1003.35
2018-08-11T02:20:39.384Z,1003.41
2018-08-11T02:21:40.386Z,1003.43
2018-08-11T02:22:56.999Z,1003.53
2018-08-11T02:23:58.243Z,1003.54
2018-08-11T02:24:57.304Z,1003.59
2018-08-11T02:26:07.034Z,1003.59
2018-08-11T02:27:07.784Z,1003.62
2018-08-11T02:28:08.223Z,1003.57
2018-08-11T02:29:06.853Z,1003.54
2018-08-11T02:30:04.307Z,1003.43
2018-08-11T02:31:06.729Z,1003.57
2018-08-11T02:32:01.966Z,1003.5
2018-08-11T02:32:59.638Z,1003.48
2018-08-11T02:34:11.266Z,1003.5
2018-08-11T02:35:10.717Z,1003.46
2018-08-11T02:36:10.221Z,1003.37
2018-08-11T02:37:11.533Z,1003.46
2018-08-11T02:38:10.268Z,1003.44
2018-08-11T02:39:10.587Z,1003.5
2018-08-11T02:40:12.533Z,1003.51
2018-08-11T02:41:10.446Z,1003.5
2018-08-11T02:42:12.608Z,1003.54
2018-08-11T02:43:12.258Z,1003.65
2018-08-11T02:44:12.850Z,1003.74
2018-08-11T02:45:11.682Z,1003.62
2018-08-11T02:46:11.841Z,1003.68
2018-08-11T02:47:08.177Z,1003.73
2018-08-11T02:48:26.797Z,1003.81
2018-08-11T02:49:24.080Z,1003.76
2018-08-11T02:50:38.332Z,1003.7
2018-08-11T02:51:36.192Z,1003.76
2018-08-11T02:52:34.210Z,1003.75
2018-08-11T02:53:33.908Z,1003.7
2018-08-11T02:54:31.407Z,1003.73
2018-08-11T02:55:30.773Z,1003.76
2018-08-11T02:56:32.395Z,1003.78
2018-08-11T02:57:31.771Z,1003.75
2018-08-11T02:58:33.712Z,1003.75
2018-08-11T02:59:44.623Z,1003.72
2018-08-11T03:00:45.406Z,1003.7
2018-08-11T03:01:50.993Z,1003.66
2018-08-11T03:02:54.240Z,1003.69
2018-08-11T03:04:01.185Z,1003.72
2018-08-11T03:05:06.744Z,1003.76
2018-08-11T03:06:05.726Z,1003.79
2018-08-11T03:07:17.920Z,1003.7
2018-08-11T03:08:10.947Z,1003.73
2018-08-11T03:09:14.611Z,1003.7
2018-08-11T03:10:19.393Z,1003.76
2018-08-11T03:11:15.209Z,1003.76
2018-08-11T03:12:15.396Z,1003.73
2018-08-11T03:13:21.136Z,1003.87
2018-08-11T03:14:15.718Z,1003.75
2018-08-11T03:15:17.896Z,1003.78
2018-08-11T03:16:16.275Z,1003.82
2018-08-11T03:17:14.710Z,1003.81
2018-08-11T03:18:15.914Z,1003.78
2018-08-11T03:19:28.544Z,1003.72
2018-08-11T03:20:23.484Z,1003.79
2018-08-11T03:21:25.400Z,1003.75
2018-08-11T03:22:24.534Z,1003.84
2018-08-11T03:23:22.783Z,1003.84
2018-08-11T03:24:24.342Z,1003.76
2018-08-11T03:25:28.724Z,1003.81
2018-08-11T03:26:27.207Z,1003.88
2018-08-11T03:27:27.041Z,1003.84
2018-08-11T03:28:33.212Z,1003.85
2018-08-11T03:29:31.134Z,1003.87
2018-08-11T03:30:32.671Z,1003.84
2018-08-11T03:31:31.804Z,1003.85
2018-08-11T03:32:27.682Z,1003.87
2018-08-11T03:33:28.751Z,1003.85
2018-08-11T03:34:24.745Z,1003.9
2018-08-11T03:35:30.382Z,1003.96
2018-08-11T03:36:26.927Z,1003.85
2018-08-11T03:37:37.544Z,1004
2018-08-11T03:38:39.957Z,1003.87
2018-08-11T03:39:39.719Z,1003.96
2018-08-11T03:40:40.390Z,1003.81
2018-08-11T03:41:54.896Z,1003.88
2018-08-11T03:42:53.019Z,1003.88
2018-08-11T03:43:58.940Z,1003.88
2018-08-11T03:44:56.881Z,1003.88
2018-08-11T03:45:56.400Z,1003.85
2018-08-11T03:46:53.923Z,1003.96
2018-08-11T03:47:51.911Z,1003.88
2018-08-11T03:48:50.615Z,1003.84
2018-08-11T03:49:48.248Z,1003.93
2018-08-11T03:50:58.392Z,1003.81
2018-08-11T03:51:54.886Z,1003.93
2018-08-11T03:53:10.036Z,1003.9
2018-08-11T03:54:05.022Z,1003.96
2018-08-11T03:55:02.735Z,1003.99
2018-08-11T03:56:17.615Z,1003.97
2018-08-11T03:57:15.854Z,1003.9
2018-08-11T03:58:14.010Z,1004
2018-08-11T03:59:11.683Z,1003.99
2018-08-11T04:00:11.643Z,1004
2018-08-11T04:01:16.068Z,1003.96
2018-08-11T04:02:14.220Z,1004
2018-08-11T04:03:19.276Z,1004.05
2018-08-11T04:04:24.311Z,1004
2018-08-11T04:05:26.212Z,1004.02
2018-08-11T04:06:38.134Z,1004.09
2018-08-11T04:07:36.197Z,1004.03
2018-08-11T04:08:35.829Z,1004.09
2018-08-11T04:09:42.640Z,1004.18
2018-08-11T04:10:41.912Z,1004.15
2018-08-11T04:11:44.685Z,1004.22
2018-08-11T04:12:45.543Z,1004.22
2018-08-11T04:13:47.435Z,1004.24
2018-08-11T04:14:50.740Z,1004.13
2018-08-11T04:15:49.073Z,1004.19
2018-08-11T04:16:46.560Z,1004.24
2018-08-11T04:18:00.759Z,1004.24
2018-08-11T04:18:57.622Z,1004.22
2018-08-11T04:19:53.090Z,1004.18
2018-08-11T04:20:53.599Z,1004.27
2018-08-11T04:21:55.326Z,1004.19
2018-08-11T04:22:55.454Z,1004.19
2018-08-11T04:23:54.049Z,1004.18
2018-08-11T04:24:54.920Z,1004.28
2018-08-11T04:25:52.979Z,1004.25
2018-08-11T04:26:53.823Z,1004.25
2018-08-11T04:27:53.893Z,1004.24
2018-08-11T04:28:55.316Z,1004.24
2018-08-11T04:30:11.375Z,1004.28
2018-08-11T04:31:06.112Z,1004.31
2018-08-11T04:32:06.276Z,1004.33
2018-08-11T04:33:09.422Z,1004.27
2018-08-11T04:34:15.863Z,1004.31
2018-08-11T04:35:15.575Z,1004.31
2018-08-11T04:36:18.492Z,1004.27
2018-08-11T04:37:17.215Z,1004.31
2018-08-11T04:38:20.125Z,1004.38
2018-08-11T04:39:18.909Z,1004.28
2018-08-11T04:39:59.239Z,1004.34
2018-08-11T04:40:56.456Z,1004.37
2018-08-11T04:41:59.855Z,1004.37
2018-08-11T04:43:01.308Z,1004.38
2018-08-11T04:43:59.832Z,1004.41
2018-08-11T04:45:02.756Z,1004.34
2018-08-11T04:46:01.383Z,1004.31
2018-08-11T04:47:07.701Z,1004.31
2018-08-11T04:48:17.128Z,1004.32
2018-08-11T04:49:13.860Z,1004.35
2018-08-11T04:50:13.279Z,1004.32
2018-08-11T04:51:11.374Z,1004.38
2018-08-11T04:52:12.247Z,1004.37
2018-08-11T04:53:13.298Z,1004.4
2018-08-11T04:54:10.918Z,1004.43
2018-08-11T04:55:16.028Z,1004.4
2018-08-11T04:56:13.794Z,1004.47
2018-08-11T04:57:11.468Z,1004.4
2018-08-11T04:58:20.804Z,1004.5
2018-08-11T04:59:20.278Z,1004.49
2018-08-11T05:00:21.236Z,1004.54
2018-08-11T05:01:17.613Z,1004.57
2018-08-11T05:02:20.186Z,1004.56
2018-08-11T05:03:37.401Z,1004.49
2018-08-11T05:04:33.048Z,1004.53
2018-08-11T05:05:31.874Z,1004.51
2018-08-11T05:06:31.089Z,1004.53
2018-08-11T05:07:27.117Z,1004.54
2018-08-11T05:08:31.455Z,1004.6
2018-08-11T05:09:41.741Z,1004.66
2018-08-11T05:10:44.936Z,1004.65
2018-08-11T05:11:43.870Z,1004.55
2018-08-11T05:12:42.218Z,1004.62
2018-08-11T05:13:41.903Z,1004.72
2018-08-11T05:14:43.703Z,1004.72
2018-08-11T05:15:42.008Z,1004.75
2018-08-11T05:16:55.917Z,1004.75
2018-08-11T05:17:58.147Z,1004.76
2018-08-11T05:19:03.612Z,1004.82
2018-08-11T05:20:01.795Z,1004.79
2018-08-11T05:20:57.980Z,1004.82
2018-08-11T05:22:07.132Z,1004.76
2018-08-11T05:23:01.841Z,1004.77
2018-08-11T05:24:08.506Z,1004.83
2018-08-11T05:25:02.893Z,1004.83
2018-08-11T05:26:05.158Z,1004.79
2018-08-11T05:27:00.345Z,1004.84
2018-08-11T05:28:01.736Z,1004.89
2018-08-11T05:29:03.926Z,1004.86
2018-08-11T05:30:03.913Z,1004.84
2018-08-11T05:31:01.304Z,1004.86
2018-08-11T05:31:59.572Z,1004.93
2018-08-11T05:33:21.618Z,1004.86
2018-08-11T05:34:26.118Z,1004.84
2018-08-11T05:35:26.954Z,1004.89
2018-08-11T05:36:23.236Z,1004.92
2018-08-11T05:37:25.482Z,1004.83
2018-08-11T05:38:29.795Z,1004.8
2018-08-11T05:39:35.812Z,1004.93
2018-08-11T05:40:36.821Z,1004.95
2018-08-11T05:41:34.404Z,1004.93
2018-08-11T05:42:34.794Z,1004.99
2018-08-11T05:43:40.199Z,1004.95
2018-08-11T05:44:36.316Z,1005.02
2018-08-11T05:45:36.012Z,1004.96
2018-08-11T05:46:35.096Z,1005.04
2018-08-11T05:47:47.744Z,1004.92
2018-08-11T05:48:42.335Z,1004.99
2018-08-11T05:49:43.012Z,1005.01
2018-08-11T05:50:41.645Z,1005.02
2018-08-11T05:51:43.508Z,1004.98
2018-08-11T05:52:38.407Z,1005.01
2018-08-11T05:53:49.232Z,1005.02
2018-08-11T05:54:52.920Z,1004.98
2018-08-11T05:55:53.240Z,1005.08
2018-08-11T05:56:52.474Z,1005.11
2018-08-11T05:57:50.480Z,1005.09
2018-08-11T05:58:49.306Z,1005.11
2018-08-11T05:59:49.812Z,1005.11
2018-08-11T06:00:48.874Z,1005.11
2018-08-11T06:02:02.669Z,1005.12
2018-08-11T06:03:00.796Z,1005.14
2018-08-11T06:03:59.874Z,1005.15
2018-08-11T06:04:58.438Z,1005.04
2018-08-11T06:05:56.220Z,1005.11
2018-08-11T06:07:05.373Z,1005.17
2018-08-11T06:08:04.627Z,1005.2
2018-08-11T06:09:04.703Z,1005.15
2018-08-11T06:10:06.541Z,1005.2
2018-08-11T06:11:14.911Z,1005.21
2018-08-11T06:12:24.286Z,1005.21
2018-08-11T06:13:23.105Z,1005.16
2018-08-11T06:14:22.956Z,1005.27
2018-08-11T06:15:22.917Z,1005.3
2018-08-11T06:16:21.987Z,1005.28
2018-08-11T06:17:20.832Z,1005.32
2018-08-11T06:18:18.808Z,1005.34
2018-08-11T06:19:19.107Z,1005.26
2018-08-11T06:20:23.860Z,1005.28
2018-08-11T06:21:23.652Z,1005.28
2018-08-11T06:22:23.138Z,1005.37
2018-08-11T06:23:21.980Z,1005.23
2018-08-11T06:24:19.699Z,1005.32
2018-08-11T06:25:33.036Z,1005.34
2018-08-11T06:26:27.212Z,1005.38
2018-08-11T06:27:27.620Z,1005.38
2018-08-11T06:28:25.097Z,1005.37
2018-08-11T06:29:22.626Z,1005.42
2018-08-11T06:30:20.056Z,1005.36
2018-08-11T06:31:17.551Z,1005.4
2018-08-11T06:32:21.416Z,1005.36
2018-08-11T06:33:21.981Z,1005.48
2018-08-11T06:34:18.051Z,1005.51
2018-08-11T06:35:19.394Z,1005.46
2018-08-11T06:36:17.833Z,1005.48
2018-08-11T06:37:15.712Z,1005.45
2018-08-11T06:38:13.438Z,1005.49
2018-08-11T06:39:21.895Z,1005.55
2018-08-11T06:40:28.722Z,1005.49
2018-08-11T06:41:27.141Z,1005.42
2018-08-11T06:42:25.263Z,1005.51
2018-08-11T06:43:38.870Z,1005.52
2018-08-11T06:44:35.954Z,1005.55
2018-08-11T06:45:43.242Z,1005.49
2018-08-11T06:46:44.619Z,1005.55
2018-08-11T06:47:43.530Z,1005.53
2018-08-11T06:48:41.704Z,1005.54
2018-08-11T06:49:40.260Z,1005.59
2018-08-11T06:50:38.085Z,1005.5
2018-08-11T06:51:39.593Z,1005.64
2018-08-11T06:52:39.722Z,1005.6
2018-08-11T06:53:45.065Z,1005.54
2018-08-11T06:54:43.572Z,1005.57
2018-08-11T06:55:42.016Z,1005.59
2018-08-11T06:56:40.037Z,1005.66
2018-08-11T06:57:34.739Z,1005.57
2018-08-11T06:58:47.766Z,1005.68
2018-08-11T06:59:42.927Z,1005.65
2018-08-11T07:00:41.675Z,1005.68
2018-08-11T07:01:39.824Z,1005.62
2018-08-11T07:02:49.968Z,1005.69
2018-08-11T07:03:47.959Z,1005.68
2018-08-11T07:04:46.038Z,1005.66
2018-08-11T07:05:46.816Z,1005.61
2018-08-11T07:06:46.676Z,1005.58
2018-08-11T07:07:46.233Z,1005.61
2018-08-11T07:08:44.826Z,1005.72
2018-08-11T07:09:43.088Z,1005.77
2018-08-11T07:10:41.377Z,1005.74
2018-08-11T07:11:41.819Z,1005.76
2018-08-11T07:12:38.103Z,1005.76
2018-08-11T07:13:36.280Z,1005.68
2018-08-11T07:14:41.874Z,1005.73
2018-08-11T07:15:55.110Z,1005.71
2018-08-11T07:16:58.298Z,1005.74
2018-08-11T07:18:01.668Z,1005.74
2018-08-11T07:19:02.192Z,1005.73
2018-08-11T07:20:01.008Z,1005.73
2018-08-11T07:21:00.757Z,1005.74
2018-08-11T07:21:58.887Z,1005.8
2018-08-11T07:22:58.321Z,1005.8
2018-08-11T07:24:00.707Z,1005.83
2018-08-11T07:25:00.128Z,1005.87
2018-08-11T07:26:13.620Z,1005.74
2018-08-11T07:27:27.419Z,1005.83
2018-08-11T07:28:27.896Z,1005.8
2018-08-11T07:29:28.168Z,1005.87
2018-08-11T07:30:26.761Z,1005.82
2018-08-11T07:31:24.608Z,1005.91
2018-08-11T07:32:23.313Z,1005.91
2018-08-11T07:33:38.777Z,1005.96
2018-08-11T07:34:45.687Z,1005.96
2018-08-11T07:35:54.185Z,1005.97
2018-08-11T07:36:54.055Z,1005.83
2018-08-11T07:37:53.274Z,1005.96
2018-08-11T07:39:05.707Z,1005.94
2018-08-11T07:40:07.552Z,1005.94
2018-08-11T07:41:06.868Z,1005.93
2018-08-11T07:42:10.230Z,1006.02
2018-08-11T07:43:09.306Z,1005.99
2018-08-11T07:44:04.590Z,1006.06
2018-08-11T07:45:07.521Z,1006.03
2018-08-11T07:46:05.497Z,1006.02
2018-08-11T07:47:24.478Z,1005.99
2018-08-11T07:48:25.853Z,1006.09
2018-08-11T07:49:31.427Z,1006.09
2018-08-11T07:50:31.314Z,1006.09
2018-08-11T07:51:26.467Z,1006.05
2018-08-11T07:52:24.149Z,1006.06
2018-08-11T07:53:22.547Z,1006.12
2018-08-11T07:54:27.986Z,1006.12
2018-08-11T07:55:28.382Z,1006.24
2018-08-11T07:56:28.846Z,1006.17
2018-08-11T07:57:29.220Z,1006.12
2018-08-11T07:58:30.067Z,1006.06
2018-08-11T07:59:29.504Z,1006.17
2018-08-11T08:00:27.326Z,1006.18
2018-08-11T08:01:31.497Z,1006.11
2018-08-11T08:02:29.199Z,1006.21
2018-08-11T08:03:24.426Z,1006.18
2018-08-11T08:04:40.612Z,1006.18
2018-08-11T08:05:52.188Z,1006.23
2018-08-11T08:06:50.473Z,1006.3
2018-08-11T08:07:50.521Z,1006.18
2018-08-11T08:08:48.176Z,1006.23
2018-08-11T08:09:47.155Z,1006.24
2018-08-11T08:10:53.352Z,1006.14
2018-08-11T08:11:51.928Z,1006.16
2018-08-11T08:12:51.621Z,1006.27
2018-08-11T08:13:59.244Z,1006.32
2018-08-11T08:14:58.386Z,1006.29
2018-08-11T08:15:59.300Z,1006.23
2018-08-11T08:16:55.110Z,1006.2
2018-08-11T08:17:55.830Z,1006.2
2018-08-11T08:18:58.053Z,1006.25
2018-08-11T08:19:57.147Z,1006.26
2018-08-11T08:20:54.069Z,1006.38
2018-08-11T08:21:58.672Z,1006.26
2018-08-11T08:22:56.648Z,1006.19
2018-08-11T08:24:12.736Z,1006.25
2018-08-11T08:25:08.358Z,1006.26
2018-08-11T08:26:08.562Z,1006.25
2018-08-11T08:27:10.175Z,1006.2
2018-08-11T08:28:07.975Z,1006.23
2018-08-11T08:29:14.037Z,1006.17
2018-08-11T08:30:19.332Z,1006.17
2018-08-11T08:31:19.206Z,1006.2
2018-08-11T08:32:18.907Z,1006.2
2018-08-11T08:33:15.392Z,1006.19
2018-08-11T08:34:28.325Z,1006.2
2018-08-11T08:35:28.443Z,1006.1
2018-08-11T08:36:29.404Z,1006.16
2018-08-11T08:37:29.817Z,1006.22
2018-08-11T08:38:30.504Z,1006.16
2018-08-11T08:39:29.965Z,1006.16
2018-08-11T08:40:24.776Z,1006.15
2018-08-11T08:41:25.072Z,1006.22
2018-08-11T08:42:23.188Z,1006.09
2018-08-11T08:43:26.101Z,1006.21
2018-08-11T08:44:28.939Z,1006.21
2018-08-11T08:45:41.124Z,1006.24
2018-08-11T08:46:43.923Z,1006.13
2018-08-11T08:47:47.117Z,1006.09
2018-08-11T08:48:52.909Z,1006.21
2018-08-11T08:50:04.557Z,1006.25
2018-08-11T08:50:59.764Z,1006.22
2018-08-11T08:51:58.325Z,1006.19
2018-08-11T08:52:59.258Z,1006.18
2018-08-11T08:53:57.494Z,1006.18
2018-08-11T08:54:56.123Z,1006.16
2018-08-11T08:56:03.548Z,1006.19
2018-08-11T08:57:07.644Z,1006.21
2018-08-11T08:58:05.473Z,1006.16
2018-08-11T08:59:08.551Z,1006.19
2018-08-11T09:00:24.443Z,1006.18
2018-08-11T09:01:22.368Z,1006.15
2018-08-11T09:02:23.972Z,1006.18
2018-08-11T09:03:23.081Z,1006.18
2018-08-11T09:04:22.143Z,1006.23
2018-08-11T09:05:22.755Z,1006.18
2018-08-11T09:06:18.066Z,1006.12
2018-08-11T09:07:13.194Z,1006.18
2018-08-11T09:08:29.006Z,1006.2
2018-08-11T09:09:27.560Z,1006.15
2018-08-11T09:10:39.552Z,1006.27
2018-08-11T09:11:34.196Z,1006.26
2018-08-11T09:12:32.010Z,1006.24
2018-08-11T09:13:29.828Z,1006.26
2018-08-11T09:14:27.689Z,1006.23
2018-08-11T09:15:26.638Z,1006.17
2018-08-11T09:16:25.326Z,1006.2
2018-08-11T09:17:24.677Z,1006.3
2018-08-11T09:18:22.565Z,1006.21
2018-08-11T09:19:23.215Z,1006.12
2018-08-11T09:20:21.180Z,1006.11
2018-08-11T09:21:19.787Z,1006.27
2018-08-11T09:22:15.840Z,1006.17
2018-08-11T09:23:31.348Z,1006.21
2018-08-11T09:24:37.793Z,1006.26
2018-08-11T09:25:42.690Z,1006.21
2018-08-11T09:27:01.899Z,1006.23
2018-08-11T09:28:05.048Z,1006.21
2018-08-11T09:29:05.092Z,1006.24
2018-08-11T09:30:02.913Z,1006.17
2018-08-11T09:31:08.569Z,1006.3
2018-08-11T09:32:07.280Z,1006.24
2018-08-11T09:33:05.768Z,1006.27
2018-08-11T09:34:03.239Z,1006.33
2018-08-11T09:35:04.217Z,1006.29
2018-08-11T09:36:02.550Z,1006.29
2018-08-11T09:37:14.806Z,1006.3
2018-08-11T09:38:09.251Z,1006.23
2018-08-11T09:39:08.525Z,1006.35
2018-08-11T09:40:08.330Z,1006.27
2018-08-11T09:41:08.598Z,1006.38
2018-08-11T09:42:03.480Z,1006.33
2018-08-11T09:43:07.232Z,1006.27
2018-08-11T09:44:05.632Z,1006.32
2018-08-11T09:45:11.252Z,1006.33
2018-08-11T09:46:09.744Z,1006.36
2018-08-11T09:47:14.407Z,1006.29
2018-08-11T09:48:13.032Z,1006.36
2018-08-11T09:49:13.180Z,1006.35
2018-08-11T09:50:15.088Z,1006.38
2018-08-11T09:51:13.013Z,1006.39
2018-08-11T09:52:15.128Z,1006.38
2018-08-11T09:53:16.791Z,1006.5
2018-08-11T09:54:12.807Z,1006.25
2018-08-11T09:55:16.394Z,1006.35
2018-08-11T09:56:18.172Z,1006.41
2018-08-11T09:57:22.184Z,1006.19
2018-08-11T09:58:40.699Z,1006.31
2018-08-11T09:59:30.635Z,1006.26
2018-08-11T10:00:30.742Z,1006.26
2018-08-11T10:01:42.714Z,1006.26
2018-08-11T10:02:47.782Z,1006.26
2018-08-11T10:03:46.834Z,1006.31
2018-08-11T10:04:47.430Z,1006.22
2018-08-11T10:05:46.566Z,1006.26
2018-08-11T10:06:47.586Z,1006.23
2018-08-11T10:07:55.035Z,1006.19
2018-08-11T10:08:52.586Z,1006.19
2018-08-11T10:09:48.798Z,1006.28
2018-08-11T10:10:46.453Z,1006.26
2018-08-11T10:11:58.978Z,1006.23
2018-08-11T10:12:53.727Z,1006.26
2018-08-11T10:13:57.191Z,1006.19
2018-08-11T10:14:49.454Z,1006.31
2018-08-11T10:15:50.469Z,1006.16
2018-08-11T10:16:48.348Z,1006.19
2018-08-11T10:17:50.216Z,1006.19
2018-08-11T10:18:48.965Z,1006.17
2018-08-11T10:19:46.715Z,1006.13
2018-08-11T10:20:44.604Z,1006.22
2018-08-11T10:21:49.266Z,1006.16
2018-08-11T10:22:49.872Z,1006.22
2018-08-11T10:24:00.983Z,1006.25
2018-08-11T10:24:57.215Z,1006.17
2018-08-11T10:26:00.290Z,1006.16
2018-08-11T10:26:59.007Z,1006.22
2018-08-11T10:28:04.298Z,1006.25
2018-08-11T10:29:02.929Z,1006.26
2018-08-11T10:30:05.621Z,1006.2
2018-08-11T10:31:13.706Z,1006.28
2018-08-11T10:32:11.418Z,1006.25
2018-08-11T10:33:12.194Z,1006.26
2018-08-11T10:34:16.227Z,1006.2
2018-08-11T10:35:12.071Z,1006.29
2018-08-11T10:36:13.695Z,1006.23
2018-08-11T10:37:18.476Z,1006.29
2018-08-11T10:38:13.290Z,1006.26
2018-08-11T10:39:12.350Z,1006.26
2018-08-11T10:40:10.374Z,1006.26
2018-08-11T10:41:22.664Z,1006.26
2018-08-11T10:42:17.382Z,1006.32
2018-08-11T10:43:19.959Z,1006.31
2018-08-11T10:44:19.437Z,1006.26
2018-08-11T10:45:18.248Z,1006.35
2018-08-11T10:46:22.015Z,1006.28
2018-08-11T10:47:21.618Z,1006.32
2018-08-11T10:48:20.185Z,1006.28
2018-08-11T10:49:21.697Z,1006.25
2018-08-11T10:50:20.254Z,1006.2
2018-08-11T10:51:21.151Z,1006.14
2018-08-11T10:52:34.528Z,1006.28
2018-08-11T10:53:29.690Z,1006.19
2018-08-11T10:54:28.113Z,1006.17
2018-08-11T10:55:29.726Z,1006.25
2018-08-11T10:56:30.317Z,1006.19
2018-08-11T10:57:34.150Z,1006.16
2018-08-11T10:58:31.806Z,1006.22
2018-08-11T10:59:32.188Z,1006.17
2018-08-11T11:00:30.039Z,1006.14
2018-08-11T11:01:29.817Z,1006.12
2018-08-11T11:02:26.975Z,1006.1
2018-08-11T11:03:38.392Z,1006.16
2018-08-11T11:04:33.520Z,1006.09
2018-08-11T11:05:32.035Z,1006.1
2018-08-11T11:06:32.423Z,1006.17
2018-08-11T11:07:30.474Z,1006.17
2018-08-11T11:08:32.635Z,1006.26
2018-08-11T11:09:34.540Z,1006.22
2018-08-11T11:10:32.534Z,1006.19
2018-08-11T11:11:27.618Z,1006.12
2018-08-11T11:12:30.112Z,1006.12
2018-08-11T11:13:28.034Z,1006.2
2018-08-11T11:14:24.951Z,1006.26
2018-08-11T11:15:37.242Z,1006.19
2018-08-11T11:16:38.886Z,1006.18
2018-08-11T11:17:36.596Z,1006.19
2018-08-11T11:18:35.512Z,1006.12
2018-08-11T11:19:33.809Z,1006.13
2018-08-11T11:20:32.240Z,1006.15
2018-08-11T11:21:29.965Z,1006.1
2018-08-11T11:22:31.380Z,1006.18
2018-08-11T11:23:31.730Z,1006.25
2018-08-11T11:23:50.125Z,1006.21
2018-08-11T11:24:48.290Z,1006.25
2018-08-11T11:25:46.341Z,1006.27
2018-08-11T11:26:45.281Z,1006.31
2018-08-11T11:27:43.983Z,1006.21
2018-08-11T11:28:47.688Z,1006.24
2018-08-11T11:29:55.282Z,1006.24
2018-08-11T11:30:55.275Z,1006.31
2018-08-11T11:31:52.182Z,1006.25
2018-08-11T11:32:52.652Z,1006.15
2018-08-11T11:33:49.282Z,1006.22
2018-08-11T11:34:55.908Z,1006.19
2018-08-11T11:35:57.042Z,1006.29
2018-08-11T11:37:08.694Z,1006.24
2018-08-11T11:38:03.281Z,1006.28
2018-08-11T11:38:59.117Z,1006.36
2018-08-11T11:40:01.167Z,1006.28
2018-08-11T11:41:06.136Z,1006.21
2018-08-11T11:42:08.263Z,1006.31
2018-08-11T11:43:13.509Z,1006.33
2018-08-11T11:44:11.323Z,1006.33
2018-08-11T11:45:05.714Z,1006.31
2018-08-11T11:46:07.873Z,1006.22
2018-08-11T11:47:14.447Z,1006.22
2018-08-11T11:48:13.455Z,1006.18
2018-08-11T11:49:16.557Z,1006.19
2018-08-11T11:50:17.131Z,1006.17
2018-08-11T11:51:25.997Z,1006.2
2018-08-11T11:52:20.431Z,1006.25
2018-08-11T11:53:21.756Z,1006.26
2018-08-11T11:54:34.067Z,1006.26
2018-08-11T11:55:27.177Z,1006.17
2018-08-11T11:56:29.449Z,1006.25
2018-08-11T11:57:25.869Z,1006.22
2018-08-11T11:58:27.989Z,1006.29
2018-08-11T11:59:22.666Z,1006.18
2018-08-11T12:00:29.980Z,1006.18
2018-08-11T12:01:27.532Z,1006.16
2018-08-11T12:02:28.961Z,1006.25
2018-08-11T12:03:31.276Z,1006.22
2018-08-11T12:04:26.601Z,1006.32
2018-08-11T12:05:43.412Z,1006.25
2018-08-11T12:06:38.078Z,1006.31
2018-08-11T12:07:38.760Z,1006.4
2018-08-11T12:08:37.790Z,1006.36
2018-08-11T12:09:37.072Z,1006.28
2018-08-11T12:10:34.727Z,1006.31
2018-08-11T12:11:37.977Z,1006.16
2018-08-11T12:12:38.656Z,1006.25
2018-08-11T12:13:37.476Z,1006.19
2018-08-11T12:14:37.077Z,1006.13
2018-08-11T12:15:39.858Z,1006.1
2018-08-11T12:16:35.492Z,1006.15
2018-08-11T12:17:47.802Z,1006.18
2018-08-11T12:18:45.372Z,1006.15
2018-08-11T12:19:43.868Z,1006.15
2018-08-11T12:20:44.641Z,1006.1
2018-08-11T12:21:43.587Z,1006.04
2018-08-11T12:22:43.525Z,1006.09
2018-08-11T12:23:40.977Z,1006.16
2018-08-11T12:24:43.480Z,1006.07